createdAt,value
2022-12-03T00:00:36.244Z,101443.73
2022-12-03T00:02:42.128Z,101444.89
2022-12-03T00:04:47.525Z,101440.84
2022-12-03T00:06:53.097Z,101443.69
2022-12-03T00:08:58.473Z,101439.61
2022-12-03T00:11:03.840Z,101442.22
2022-12-03T00:13:08.990Z,101435.67
2022-12-03T00:15:14.120Z,101435.41
2022-12-03T00:17:19.161Z,101438.88
2022-12-03T00:19:24.574Z,101439.68
2022-12-03T00:21:29.680Z,101434.63
2022-12-03T00:23:42.384Z,101431.17
2022-12-03T00:25:47.663Z,101432.81
2022-12-03T00:27:52.520Z,101429.67
2022-12-03T00:29:57.975Z,101432.73
2022-12-03T00:32:03.290Z,101431.16
2022-12-03T00:34:09.070Z,101429.84
2022-12-03T00:36:14.451Z,101428.77
2022-12-03T00:38:20.051Z,101428.92
2022-12-03T00:40:25.168Z,101427.53
2022-12-03T00:42:30.520Z,101428.54
2022-12-03T00:44:35.883Z,101421.2
2022-12-03T00:46:41.220Z,101426.03
2022-12-03T00:48:46.603Z,101424.67
2022-12-03T00:50:52.023Z,101422.73
2022-12-03T00:52:57.655Z,101424.58
2022-12-03T00:55:02.968Z,101424.47
2022-12-03T00:57:08.200Z,101425.25
2022-12-03T00:59:13.315Z,101426
2022-12-03T01:01:18.667Z,101423.48
2022-12-03T01:03:24.182Z,101426.18
2022-12-03T01:05:29.507Z,101422.39
2022-12-03T01:07:34.926Z,101420.39
2022-12-03T01:09:40.280Z,101424.61
2022-12-03T01:11:45.346Z,101420.81
2022-12-03T01:13:50.511Z,101420.75
2022-12-03T01:15:55.914Z,101426.16
2022-12-03T01:18:01.419Z,101422.83
2022-12-03T01:20:06.404Z,101417.97
2022-12-03T01:22:11.609Z,101417.49
2022-12-03T01:24:16.777Z,101418.23
2022-12-03T01:26:22.362Z,101419.06
2022-12-03T01:28:27.555Z,101420.08
2022-12-03T01:30:32.890Z,101418.92
2022-12-03T01:32:37.983Z,101420.75
2022-12-03T01:34:43.151Z,101419.52
2022-12-03T01:36:48.283Z,101419.84
2022-12-03T01:38:53.361Z,101425.16
2022-12-03T01:40:58.312Z,101424.25
2022-12-03T01:43:03.513Z,101424.96
2022-12-03T01:45:08.497Z,101423.62
2022-12-03T01:47:13.671Z,101425.69
2022-12-03T01:49:18.709Z,101425.26
2022-12-03T01:51:23.734Z,101422
2022-12-03T01:53:29.235Z,101424.25
2022-12-03T01:55:34.385Z,101421.61
2022-12-03T01:57:39.588Z,101428.88
2022-12-03T01:59:44.783Z,101430.47
2022-12-03T02:01:50.087Z,101429.48
2022-12-03T02:03:55.698Z,101424.82
2022-12-03T02:06:01.437Z,101424.17
2022-12-03T02:08:06.569Z,101430.98
2022-12-03T02:10:11.811Z,101424.93
2022-12-03T02:12:19.994Z,101426.19
2022-12-03T02:14:25.058Z,101428.2
2022-12-03T02:16:30.447Z,101427.19
2022-12-03T02:18:35.907Z,101425.7
2022-12-03T02:20:41.064Z,101424.25
2022-12-03T02:22:46.136Z,101424.7
2022-12-03T02:24:51.957Z,101418.67
2022-12-03T02:26:58.029Z,101421.28
2022-12-03T02:29:03.194Z,101418.51
2022-12-03T02:31:08.326Z,101414.69
2022-12-03T02:33:13.548Z,101410.96
2022-12-03T02:35:18.606Z,101413.67
2022-12-03T02:37:23.598Z,101413.6
2022-12-03T02:39:28.687Z,101415.47
2022-12-03T02:41:34.164Z,101416.88
2022-12-03T02:43:39.198Z,101414.33
2022-12-03T02:45:44.342Z,101414.48
2022-12-03T02:47:49.542Z,101411.97
2022-12-03T02:49:54.687Z,101416.17
2022-12-03T02:51:59.809Z,101413.73
2022-12-03T02:54:04.860Z,101416.96
2022-12-03T02:56:09.857Z,101422.98
2022-12-03T02:58:15.066Z,101421.29
2022-12-03T03:00:20.167Z,101426.49
2022-12-03T03:02:25.817Z,101424.92
2022-12-03T03:04:31.585Z,101423.01
2022-12-03T03:06:36.608Z,101418.77
2022-12-03T03:08:41.657Z,101416.8
2022-12-03T03:10:46.814Z,101413.1
2022-12-03T03:12:52.432Z,101411.98
2022-12-03T03:14:57.573Z,101410.27
2022-12-03T03:17:02.679Z,101406.91
2022-12-03T03:19:07.830Z,101408.23
2022-12-03T03:21:16.316Z,101408.58
2022-12-03T03:23:21.205Z,101407.52
2022-12-03T03:25:26.324Z,101403.7
2022-12-03T03:27:31.577Z,101401.03
2022-12-03T03:29:36.588Z,101396.94
2022-12-03T03:31:41.714Z,101395.66
2022-12-03T03:33:47.119Z,101392.17
2022-12-03T03:35:52.159Z,101388.53
2022-12-03T03:37:57.237Z,101392.22
2022-12-03T03:40:02.221Z,101388.44
2022-12-03T03:42:07.336Z,101391.2
2022-12-03T03:44:12.327Z,101390.95
2022-12-03T03:46:17.593Z,101389.21
2022-12-03T03:48:23.224Z,101391.55
2022-12-03T03:50:28.358Z,101392.09
2022-12-03T03:52:33.440Z,101388.81
2022-12-03T03:54:38.726Z,101389.88
2022-12-03T03:56:44.152Z,101389.31
2022-12-03T03:58:49.287Z,101387.47
2022-12-03T04:00:54.629Z,101384.09
2022-12-03T04:03:00.108Z,101385.9
2022-12-03T04:05:05.229Z,101386.2
2022-12-03T04:07:10.250Z,101387.23
2022-12-03T04:09:15.201Z,101391.05
2022-12-03T04:11:20.505Z,101392.84
2022-12-03T04:13:25.591Z,101387.16
2022-12-03T04:15:30.853Z,101390.45
2022-12-03T04:17:36.032Z,101388.22
2022-12-03T04:19:41.306Z,101388.95
2022-12-03T04:21:46.477Z,101394.68
2022-12-03T04:23:51.531Z,101396.92
2022-12-03T04:25:56.633Z,101394.34
2022-12-03T04:28:01.833Z,101392.39
2022-12-03T04:30:07.096Z,101391.45
2022-12-03T04:32:12.075Z,101392.84
2022-12-03T04:34:17.207Z,101393.44
2022-12-03T04:36:22.575Z,101386.13
2022-12-03T04:38:27.756Z,101385.2
2022-12-03T04:40:32.888Z,101383.69
2022-12-03T04:42:37.882Z,101378.72
2022-12-03T04:44:43.003Z,101375.25
2022-12-03T04:46:48.088Z,101376.55
2022-12-03T04:48:53.446Z,101379.56
2022-12-03T04:50:58.674Z,101377.73
2022-12-03T04:53:03.629Z,101380.55
2022-12-03T04:55:08.789Z,101382.98
2022-12-03T04:57:14.129Z,101379.56
2022-12-03T04:59:19.485Z,101376.14
2022-12-03T05:01:24.835Z,101379.73
2022-12-03T05:03:30.474Z,101376.27
2022-12-03T05:05:35.898Z,101382.75
2022-12-03T05:07:41.548Z,101379.8
2022-12-03T05:09:47.196Z,101376.86
2022-12-03T05:11:52.261Z,101371.27
2022-12-03T05:13:57.571Z,101371.31
2022-12-03T05:16:02.689Z,101370.41
2022-12-03T05:18:07.646Z,101366.47
2022-12-03T05:20:12.985Z,101362.48
2022-12-03T05:22:18.261Z,101362.36
2022-12-03T05:24:23.449Z,101361.25
2022-12-03T05:26:28.562Z,101366.52
2022-12-03T05:28:33.882Z,101367.68
2022-12-03T05:30:39.427Z,101366.55
2022-12-03T05:32:45.558Z,101367.51
2022-12-03T05:34:51.131Z,101366.86
2022-12-03T05:36:57.908Z,101364.62
2022-12-03T05:39:03.189Z,101365.28
2022-12-03T05:41:08.833Z,101366.17
2022-12-03T05:43:16.851Z,101365.44
2022-12-03T05:45:22.086Z,101369.13
2022-12-03T05:47:27.429Z,101369.36
2022-12-03T05:49:32.497Z,101368.31
2022-12-03T05:51:37.665Z,101364.06
2022-12-03T05:53:42.763Z,101359.8
2022-12-03T05:55:48.422Z,101364
2022-12-03T05:57:53.814Z,101356.98
2022-12-03T05:59:58.914Z,101356.87
2022-12-03T06:02:04.510Z,101353
2022-12-03T06:04:10.183Z,101352.87
2022-12-03T06:06:15.445Z,101355.52
2022-12-03T06:08:20.698Z,101353.91
2022-12-03T06:10:25.716Z,101358.75
2022-12-03T06:12:30.852Z,101363.84
2022-12-03T06:14:36.424Z,101367.08
2022-12-03T06:16:42.167Z,101364.05
2022-12-03T06:18:47.763Z,101366.31
2022-12-03T06:20:53.213Z,101366.28
2022-12-03T06:22:58.278Z,101371.59
2022-12-03T06:25:08.209Z,101373.08
2022-12-03T06:27:13.451Z,101377
2022-12-03T06:29:18.499Z,101378.93
2022-12-03T06:31:40.595Z,101383.17
2022-12-03T06:33:50.803Z,101383.63
2022-12-03T06:35:56.392Z,101386.39
2022-12-03T06:38:01.421Z,101385.13
2022-12-03T06:40:06.540Z,101385.47
2022-12-03T06:42:12.135Z,101388.37
2022-12-03T06:44:17.193Z,101384.22
2022-12-03T06:46:22.657Z,101386.74
2022-12-03T06:48:28.187Z,101389.31
2022-12-03T06:50:33.568Z,101391.41
2022-12-03T06:52:38.866Z,101385.43
2022-12-03T06:54:44.169Z,101386.65
2022-12-03T06:56:49.311Z,101388.84
2022-12-03T06:58:54.460Z,101391.04
2022-12-03T07:00:59.590Z,101387.75
2022-12-03T07:03:05.244Z,101393.17
2022-12-03T07:05:10.701Z,101394.63
2022-12-03T07:07:15.774Z,101394.33
2022-12-03T07:09:20.849Z,101388.67
2022-12-03T07:11:26.274Z,101387.33
2022-12-03T07:13:31.343Z,101387.41
2022-12-03T07:15:36.579Z,101382.63
2022-12-03T07:17:41.733Z,101389.06
2022-12-03T07:19:46.929Z,101387.39
2022-12-03T07:21:52.104Z,101376.62
2022-12-03T07:23:57.346Z,101372.7
2022-12-03T07:26:02.717Z,101372.83
2022-12-03T07:28:07.977Z,101371.05
2022-12-03T07:30:13.386Z,101373.72
2022-12-03T07:32:18.874Z,101369.52
2022-12-03T07:34:24.047Z,101370.19
2022-12-03T07:36:29.186Z,101375.38
2022-12-03T07:38:34.274Z,101371.39
2022-12-03T07:40:39.339Z,101375.69
2022-12-03T07:42:44.903Z,101378.28
2022-12-03T07:44:53.047Z,101376.84
2022-12-03T07:46:59.572Z,101377.88
2022-12-03T07:49:05.098Z,101378.42
2022-12-03T07:51:16.201Z,101375.46
2022-12-03T07:53:21.504Z,101378.08
2022-12-03T07:55:26.947Z,101373.13
2022-12-03T07:57:32.030Z,101375.67
2022-12-03T07:59:37.182Z,101370.67
2022-12-03T08:01:42.622Z,101373.45
2022-12-03T08:03:47.967Z,101368.34
2022-12-03T08:05:56.380Z,101372.98
2022-12-03T08:08:02.222Z,101372.05
2022-12-03T08:10:10.947Z,101373.02
2022-12-03T08:12:18.553Z,101371.47
2022-12-03T08:14:27.839Z,101372.83
2022-12-03T08:16:34.689Z,101378.88
2022-12-03T08:18:40.636Z,101380.75
2022-12-03T08:20:46.232Z,101374.37
2022-12-03T08:22:51.909Z,101378.02
2022-12-03T08:24:58.670Z,101377.1
2022-12-03T08:27:05.382Z,101376.57
2022-12-03T08:29:12.618Z,101377.02
2022-12-03T08:31:20.647Z,101380.14
2022-12-03T08:33:32.330Z,101386.73
2022-12-03T08:35:37.696Z,101387.38
2022-12-03T08:37:42.808Z,101385.87
2022-12-03T08:39:48.516Z,101385.17
2022-12-03T08:41:54.161Z,101383.48
2022-12-03T08:43:59.828Z,101380.13
2022-12-03T08:46:05.607Z,101376.83
2022-12-03T08:48:11.511Z,101379.08
2022-12-03T08:50:16.980Z,101377.73
2022-12-03T08:52:46.791Z,101373.57
2022-12-03T08:54:53.163Z,101367.3
2022-12-03T08:57:00.712Z,101363.84
2022-12-03T08:59:06.340Z,101367.53
2022-12-03T09:01:15.301Z,101370.58
2022-12-03T09:03:21.159Z,101369.77
2022-12-03T09:05:26.574Z,101365.61
2022-12-03T09:07:32.053Z,101357.5
2022-12-03T09:09:37.915Z,101357.22
2022-12-03T09:11:43.506Z,101361.2
2022-12-03T09:13:49.476Z,101355.3
2022-12-03T09:15:55.631Z,101355.17
2022-12-03T09:18:02.189Z,101350.51
2022-12-03T09:20:08.087Z,101355.96
2022-12-03T09:22:14.209Z,101356.76
2022-12-03T09:24:20.793Z,101351.86
2022-12-03T09:26:26.349Z,101356.97
2022-12-03T09:28:31.565Z,101355.72
2022-12-03T09:30:37.503Z,101353.59
2022-12-03T09:32:44.148Z,101348.66
2022-12-03T09:34:50.391Z,101339.54
2022-12-03T09:36:57.234Z,101339.66
2022-12-03T09:39:02.632Z,101348.28
2022-12-03T09:41:08.196Z,101351.16
2022-12-03T09:43:14.762Z,101340.27
2022-12-03T09:45:20.863Z,101328.2
2022-12-03T09:47:28.226Z,101335.53
2022-12-03T09:49:34.014Z,101333.51
2022-12-03T09:51:39.828Z,101334.14
2022-12-03T09:53:45.947Z,101330.5
2022-12-03T09:55:52.122Z,101328.92
2022-12-03T09:57:58.118Z,101330.39
2022-12-03T10:00:04.579Z,101327.3
2022-12-03T10:02:10.290Z,101326.95
2022-12-03T10:04:31.929Z,101328.98
2022-12-03T10:06:46.163Z,101330.94
2022-12-03T10:08:51.868Z,101333.23
2022-12-03T10:10:57.774Z,101330.63
2022-12-03T10:13:03.854Z,101334.28
2022-12-03T10:15:09.428Z,101333.85
2022-12-03T10:17:14.946Z,101333.09
2022-12-03T10:19:24.161Z,101332.52
2022-12-03T10:21:29.562Z,101330.73
2022-12-03T10:23:35.077Z,101326.27
2022-12-03T10:25:40.709Z,101322.63
2022-12-03T10:27:46.091Z,101326.39
2022-12-03T10:29:51.974Z,101327.23
2022-12-03T10:31:58.745Z,101326.98
2022-12-03T10:34:04.372Z,101331.28
2022-12-03T10:36:09.818Z,101323.34
2022-12-03T10:38:15.357Z,101320.73
2022-12-03T10:40:21.374Z,101315.7
2022-12-03T10:42:26.800Z,101317.56
2022-12-03T10:44:32.150Z,101315.66
2022-12-03T10:46:38.290Z,101315.19
2022-12-03T10:48:44.288Z,101312.59
2022-12-03T10:50:49.644Z,101312.59
2022-12-03T10:52:56.359Z,101310.68
2022-12-03T10:55:02.131Z,101312.86
2022-12-03T10:57:08.021Z,101312.13
2022-12-03T10:59:13.927Z,101312.31
2022-12-03T11:01:21.826Z,101314.56
2022-12-03T11:03:27.749Z,101317.19
2022-12-03T11:05:33.544Z,101312.15
2022-12-03T11:07:53.474Z,101310.67
2022-12-03T11:09:59.539Z,101312.94
2022-12-03T11:12:19.882Z,101317.48
2022-12-03T11:14:25.591Z,101317.73
2022-12-03T11:16:48.875Z,101314.94
2022-12-03T11:18:54.772Z,101309.36
2022-12-03T11:21:04.002Z,101305.16
2022-12-03T11:23:12.610Z,101308.23
2022-12-03T11:25:23.145Z,101310.39
2022-12-03T11:27:29.143Z,101307.07
2022-12-03T11:29:37.675Z,101301.75
2022-12-03T11:31:43.510Z,101301.75
2022-12-03T11:33:51.204Z,101292.94
2022-12-03T11:35:59.044Z,101289.68
2022-12-03T11:38:08.775Z,101294.75
2022-12-03T11:40:19.498Z,101290.06
2022-12-03T11:42:28.726Z,101288.66
2022-12-03T11:44:50.260Z,101287.29
2022-12-03T11:46:56.601Z,101280.42
2022-12-03T11:49:05.290Z,101277.01
2022-12-03T11:51:13.355Z,101268.98
2022-12-03T11:53:19.128Z,101263.86
2022-12-03T11:55:28.276Z,101266.52
2022-12-03T11:57:34.045Z,101267.98
2022-12-03T11:59:39.694Z,101272.07
2022-12-03T12:01:45.730Z,101271.34
2022-12-03T12:03:59.649Z,101265.43
2022-12-03T12:06:14.131Z,101264.07
2022-12-03T12:08:22.347Z,101264.91
2022-12-03T12:10:28.406Z,101272.5
2022-12-03T12:12:36.123Z,101272.36
2022-12-03T12:14:56.210Z,101269.89
2022-12-03T12:17:02.023Z,101262.17
2022-12-03T12:19:07.835Z,101271.14
2022-12-03T12:21:16.267Z,101273
2022-12-03T12:23:21.778Z,101274.23
2022-12-03T12:25:27.681Z,101266.23
2022-12-03T12:27:34.332Z,101266.87
2022-12-03T12:29:48.001Z,101273.2
2022-12-03T12:31:55.973Z,101276.22
2022-12-03T12:34:01.786Z,101277.39
2022-12-03T12:36:07.342Z,101276.59
2022-12-03T12:38:16.232Z,101279.62
2022-12-03T12:40:23.715Z,101280.99
2022-12-03T12:42:35.106Z,101285.22
2022-12-03T12:44:40.974Z,101282.98
2022-12-03T12:47:01.206Z,101279.13
2022-12-03T12:49:11.541Z,101275.03
2022-12-03T12:51:17.497Z,101275.48
2022-12-03T12:53:26.637Z,101276.27
2022-12-03T12:55:33.125Z,101274.34
2022-12-03T12:57:42.111Z,101270.94
2022-12-03T12:59:53.960Z,101276.54
2022-12-03T13:02:11.931Z,101275.92
2022-12-03T13:04:25.451Z,101277.2
2022-12-03T13:06:32.810Z,101273.18
2022-12-03T13:08:43.422Z,101275.5
2022-12-03T13:11:08.139Z,101273.34
2022-12-03T13:13:14.862Z,101279.56
2022-12-03T13:15:31.016Z,101283.28
2022-12-03T13:17:36.622Z,101280.82
2022-12-03T13:20:05.355Z,101283.61
2022-12-03T13:22:23.853Z,101285.96
2022-12-03T13:24:30.348Z,101278.61
2022-12-03T13:26:40.520Z,101278.84
2022-12-03T13:28:46.173Z,101277
2022-12-03T13:30:51.729Z,101282
2022-12-03T13:32:57.346Z,101278.15
2022-12-03T13:35:02.725Z,101275.56
2022-12-03T13:37:22.788Z,101278.19
2022-12-03T13:39:28.500Z,101279.98
2022-12-03T13:41:34.062Z,101281.98
2022-12-03T13:43:44.782Z,101279.8
2022-12-03T13:45:50.472Z,101279.22
2022-12-03T13:47:56.180Z,101280.97
2022-12-03T13:50:01.996Z,101278.56
2022-12-03T13:52:08.453Z,101280.64
2022-12-03T13:54:17.427Z,101280.09
2022-12-03T13:56:22.821Z,101281.88
2022-12-03T13:58:28.328Z,101288.11
2022-12-03T14:00:37.332Z,101296.38
2022-12-03T14:02:43.221Z,101300.92
2022-12-03T14:04:49.282Z,101303.8
2022-12-03T14:07:03.478Z,101308.44
2022-12-03T14:09:09.104Z,101305.87
2022-12-03T14:11:14.427Z,101305.3
2022-12-03T14:13:19.761Z,101305.64
2022-12-03T14:15:25.157Z,101299.09
2022-12-03T14:17:32.987Z,101290.09
2022-12-03T14:19:38.526Z,101295.34
2022-12-03T14:21:44.210Z,101298.28
2022-12-03T14:23:50.086Z,101301.17
2022-12-03T14:25:55.518Z,101307.14
2022-12-03T14:28:01.006Z,101303.48
2022-12-03T14:30:07.521Z,101300.47
2022-12-03T14:32:13.505Z,101300.65
2022-12-03T14:34:19.812Z,101304.19
2022-12-03T14:38:54.305Z,101297.81
2022-12-03T14:40:59.760Z,101298.13
2022-12-03T14:43:05.411Z,101293.52
2022-12-03T14:45:35.014Z,101291.93
2022-12-03T14:47:40.651Z,101294.61
2022-12-03T14:49:46.221Z,101294.7
2022-12-03T14:51:52.074Z,101299.64
2022-12-03T14:54:00.589Z,101302.47
2022-12-03T14:56:06.250Z,101300.23
2022-12-03T14:58:11.531Z,101303.8
2022-12-03T15:00:22.341Z,101310.38
2022-12-03T15:02:30.847Z,101312.91
2022-12-03T15:04:36.998Z,101316.35
2022-12-03T15:06:43.781Z,101317.4
2022-12-03T15:08:49.557Z,101319.12
2022-12-03T15:10:56.996Z,101313.91
2022-12-03T15:13:02.879Z,101315.86
2022-12-03T15:15:11.454Z,101319.44
2022-12-03T15:17:59.111Z,101320.2
2022-12-03T15:20:11.772Z,101319.28
2022-12-03T15:22:20.083Z,101316.02
2022-12-03T15:24:28.265Z,101320.55
2022-12-03T15:26:34.491Z,101325.23
2022-12-03T15:28:49.528Z,101332.7
2022-12-03T15:30:59.270Z,101334.3
2022-12-03T15:33:05.747Z,101335.64
2022-12-03T15:35:13.519Z,101345
2022-12-03T15:37:22.268Z,101345.91
2022-12-03T15:39:29.538Z,101345.77
2022-12-03T15:41:35.709Z,101345.97
2022-12-03T15:43:41.889Z,101350.09
2022-12-03T15:45:48.914Z,101349.13
2022-12-03T15:47:54.691Z,101349.34
2022-12-03T15:50:02.142Z,101352.27
2022-12-03T15:52:08.008Z,101357.5
2022-12-03T15:54:18.136Z,101353.59
2022-12-03T15:56:24.232Z,101353.88
2022-12-03T15:58:30.276Z,101357.58
2022-12-03T16:00:39.603Z,101359.16
2022-12-03T16:02:55.736Z,101357.42
2022-12-03T16:05:01.395Z,101359.34
2022-12-03T16:07:10.939Z,101364.48
2022-12-03T16:09:22.396Z,101363.55
2022-12-03T16:11:35.943Z,101359.73
2022-12-03T16:13:43.206Z,101362.29
2022-12-03T16:15:49.063Z,101357.31
2022-12-03T16:17:54.606Z,101357.45
2022-12-03T16:20:01.494Z,101360.52
2022-12-03T16:22:09.211Z,101360.88
2022-12-03T16:24:14.986Z,101370.22
2022-12-03T16:26:20.307Z,101367.38
2022-12-03T16:28:29.496Z,101373.22
2022-12-03T16:30:40.522Z,101375.31
2022-12-03T16:32:47.495Z,101371.69
2022-12-03T16:34:54.488Z,101372.52
2022-12-03T16:37:01.438Z,101377.68
2022-12-03T16:39:08.988Z,101374.56
2022-12-03T16:41:14.706Z,101379.14
2022-12-03T16:43:21.117Z,101379.52
2022-12-03T16:45:32.797Z,101375.89
2022-12-03T16:47:39.097Z,101371.66
2022-12-03T16:49:44.742Z,101372.49
2022-12-03T16:51:53.448Z,101371.55
2022-12-03T16:54:01.508Z,101371.87
2022-12-03T16:56:08.635Z,101371.03
2022-12-03T16:58:14.641Z,101371.64
2022-12-03T17:00:20.443Z,101363.19
2022-12-03T17:02:29.051Z,101360.42
2022-12-03T17:04:38.976Z,101366.61
2022-12-03T17:06:45.735Z,101364.72
2022-12-03T17:08:52.526Z,101363.07
2022-12-03T17:11:04.755Z,101360.52
2022-12-03T17:13:12.630Z,101359.94
2022-12-03T17:15:22.149Z,101358.27
2022-12-03T17:17:32.695Z,101357.77
2022-12-03T17:19:40.709Z,101354.82
2022-12-03T17:21:49.473Z,101353.54
2022-12-03T17:23:58.898Z,101355.77
2022-12-03T17:26:06.693Z,101357.1
2022-12-03T17:28:13.646Z,101354.73
2022-12-03T17:30:23.815Z,101358.15
2022-12-03T17:32:29.594Z,101358.52
2022-12-03T17:34:35.803Z,101356.45
2022-12-03T17:36:43.582Z,101354.54
2022-12-03T17:39:13.270Z,101355.75
2022-12-03T17:41:20.339Z,101358.91
2022-12-03T17:43:28.077Z,101363.89
2022-12-03T17:45:50.846Z,101363.47
2022-12-03T17:48:01.735Z,101361.41
2022-12-03T17:50:10.921Z,101362.86
2022-12-03T17:52:17.588Z,101371.49
2022-12-03T17:55:02.285Z,101375.05
2022-12-03T17:57:35.360Z,101373.84
2022-12-03T17:59:48.289Z,101373.38
2022-12-03T18:01:59.720Z,101363.2
2022-12-03T18:04:06.177Z,101362.98
2022-12-03T18:06:18.456Z,101357.72
2022-12-03T18:08:29.203Z,101356.98
2022-12-03T18:13:45.266Z,101353.39
2022-12-03T18:16:06.453Z,101346.67
2022-12-03T18:18:15.509Z,101350.98
2022-12-03T18:20:28.556Z,101351.16
2022-12-03T18:22:43.168Z,101352.58
2022-12-03T18:24:56.373Z,101345.11
2022-12-03T18:27:09.843Z,101350.39
2022-12-03T18:29:21.998Z,101353.58
2022-12-03T18:31:30.934Z,101354.93
2022-12-03T18:33:38.002Z,101357.95
2022-12-03T18:35:46.359Z,101358.7
2022-12-03T18:37:54.613Z,101353.63
2022-12-03T18:40:15.399Z,101352.98
2022-12-03T18:42:26.627Z,101348.5
2022-12-03T18:44:50.069Z,101349.69
2022-12-03T18:47:09.032Z,101346.75
2022-12-03T18:49:29.392Z,101354.59
2022-12-03T18:51:40.391Z,101350.97
2022-12-03T18:54:06.937Z,101350.56
2022-12-03T18:56:22.175Z,101345.84
2022-12-03T18:58:28.492Z,101343.98
2022-12-03T19:00:36.588Z,101345.75
2022-12-03T19:03:15.765Z,101346.45
2022-12-03T19:05:31.530Z,101347.3
2022-12-03T19:07:38.850Z,101341.86
2022-12-03T19:09:50.968Z,101341.03
2022-12-03T19:12:02.223Z,101336.71
2022-12-03T19:14:25.200Z,101329.78
2022-12-03T19:16:37.542Z,101327.44
2022-12-03T19:18:46.356Z,101321.41
2022-12-03T19:21:10.610Z,101314.94
2022-12-03T19:23:19.323Z,101317.91
2022-12-03T19:25:46.283Z,101322.28
2022-12-03T19:27:54.411Z,101329.03
2022-12-03T19:30:03.293Z,101344.36
2022-12-03T19:32:12.013Z,101346.88
2022-12-03T19:34:18.737Z,101352.19
2022-12-03T19:36:28.101Z,101347.39
2022-12-03T19:38:36.844Z,101349.14
2022-12-03T19:40:45.217Z,101350.68
2022-12-03T19:43:02.361Z,101348.15
2022-12-03T19:45:17.830Z,101353.27
2022-12-03T19:47:37.158Z,101350.09
2022-12-03T19:49:45.172Z,101350.13
2022-12-03T19:51:55.070Z,101343.87
2022-12-03T19:54:06.115Z,101346
2022-12-03T19:56:15.939Z,101345.01
2022-12-03T19:58:27.289Z,101347.07
2022-12-03T20:00:34.146Z,101342.48
2022-12-03T20:02:46.102Z,101342.2
2022-12-03T20:05:14.534Z,101341.8
2022-12-03T20:07:42.285Z,101343.5
2022-12-03T20:09:48.651Z,101348.02
2022-12-03T20:12:01.679Z,101351.95
2022-12-03T20:14:18.585Z,101352.45
2022-12-03T20:16:32.033Z,101348.34
2022-12-03T20:18:45.857Z,101350.59
2022-12-03T20:20:57.491Z,101349.45
2022-12-03T20:23:19.200Z,101354.63
2022-12-03T20:25:29.618Z,101358.35
2022-12-03T20:27:53.917Z,101357.16
2022-12-03T20:30:05.186Z,101354.05
2022-12-03T20:32:17.427Z,101352.48
2022-12-03T20:34:34.021Z,101354.67
2022-12-03T20:36:56.603Z,101353.78
2022-12-03T20:39:05.635Z,101359.25
2022-12-03T20:41:13.776Z,101362.2
2022-12-03T20:43:50.675Z,101356.83
2022-12-03T20:46:13.282Z,101355.86
2022-12-03T20:48:22.922Z,101353.4
2022-12-03T20:50:45.526Z,101350.28
2022-12-03T20:53:34.945Z,101349.02
2022-12-03T20:55:51.347Z,101345.23
2022-12-03T20:58:02.732Z,101340.19
2022-12-03T21:00:13.283Z,101341.22
2022-12-03T21:02:27.705Z,101345.77
2022-12-03T21:04:36.711Z,101346.47
2022-12-03T21:06:51.907Z,101357.03
2022-12-03T21:09:01.522Z,101356.68
2022-12-03T21:11:26.235Z,101358.47
2022-12-03T21:13:34.376Z,101361.08
2022-12-03T21:15:48.187Z,101359.39
2022-12-03T21:17:56.626Z,101364.67
2022-12-03T21:20:05.312Z,101363.55
2022-12-03T21:22:14.567Z,101365.73
2022-12-03T21:24:25.568Z,101369.88
2022-12-03T21:26:36.499Z,101380.07
2022-12-03T21:28:48.402Z,101379.33
2022-12-03T21:30:55.347Z,101373.41
2022-12-03T21:33:03.741Z,101378.37
2022-12-03T21:35:10.609Z,101371.56
2022-12-03T21:37:18.507Z,101368.79
2022-12-03T21:39:27.155Z,101376.17
2022-12-03T21:41:33.500Z,101370
2022-12-03T21:43:39.482Z,101371
2022-12-03T21:45:51.480Z,101377.09
2022-12-03T21:48:01.112Z,101376.12
2022-12-03T21:50:09.025Z,101370.91
2022-12-03T21:52:21.235Z,101373.91
2022-12-03T21:54:29.888Z,101376.97
2022-12-03T21:56:36.738Z,101379.03
2022-12-03T21:58:50.260Z,101374.31
2022-12-03T22:00:58.443Z,101375.7
2022-12-03T22:03:12.096Z,101373.05
2022-12-03T22:05:20.910Z,101365.28
2022-12-03T22:07:36.118Z,101360.66
2022-12-03T22:09:43.848Z,101355.44
2022-12-03T22:11:50.521Z,101356.69
2022-12-03T22:13:58.352Z,101354.76
2022-12-03T22:16:06.176Z,101359.97
2022-12-03T22:18:13.323Z,101363.95
2022-12-03T22:20:19.577Z,101366.25
2022-12-03T22:22:26.567Z,101360.2
2022-12-03T22:24:32.665Z,101358.03
2022-12-03T22:26:38.813Z,101362.43
2022-12-03T22:28:45.320Z,101364.83
2022-12-03T22:30:56.941Z,101369.38
2022-12-03T22:33:08.283Z,101367.89
2022-12-03T22:35:17.694Z,101364.46
2022-12-03T22:37:26.085Z,101367.11
2022-12-03T22:39:32.146Z,101366.53
2022-12-03T22:41:37.761Z,101366.95
2022-12-03T22:43:43.814Z,101362.35
2022-12-03T22:45:49.143Z,101357.05
2022-12-03T22:47:55.900Z,101351.74
2022-12-03T22:50:01.950Z,101351.84
2022-12-03T22:52:09.456Z,101353.81
2022-12-03T22:54:18.213Z,101359.41
2022-12-03T22:56:29.349Z,101351.32
2022-12-03T22:58:35.541Z,101345.11
2022-12-03T23:00:42.110Z,101352.98
2022-12-03T23:02:47.903Z,101345.69
2022-12-03T23:04:54.615Z,101345.69
2022-12-03T23:07:00.343Z,101344.31
2022-12-03T23:09:06.888Z,101353.1
2022-12-03T23:11:34.054Z,101361.39
2022-12-03T23:13:39.577Z,101360.73
2022-12-03T23:15:49.245Z,101361.34
2022-12-03T23:17:55.871Z,101363.09
2022-12-03T23:20:02.984Z,101359.94
2022-12-03T23:22:09.031Z,101361.71
2022-12-03T23:24:14.729Z,101363.59
2022-12-03T23:26:20.790Z,101352.5
2022-12-03T23:28:27.038Z,101353.8
2022-12-03T23:30:35.224Z,101342.88
2022-12-03T23:32:41.044Z,101345.78
2022-12-03T23:34:47.687Z,101342.18
2022-12-03T23:36:57.513Z,101333.72
2022-12-03T23:39:09.948Z,101338.83
2022-12-03T23:41:15.561Z,101337.37
2022-12-03T23:43:24.506Z,101332.72
2022-12-03T23:45:31.750Z,101331.06
2022-12-03T23:47:38.177Z,101333.72
2022-12-03T23:49:43.868Z,101332.94
2022-12-03T23:51:49.434Z,101335.24
2022-12-03T23:53:57.207Z,101332.08
2022-12-03T23:56:02.685Z,101330.34
2022-12-03T23:58:09.503Z,101332.22
